Aérodrome :
LOGIN :

S'inscrire | Disclaimer

   EN    FR    IT 

 










Légende :    VFR   VFR Marginal   IFR   IFR Intensif   IFR Très Intensif
Visi : 
Plafond : 
>= 8 km
>= 3000ft
5 à 8 km
1000 à 3000 ft
1500m à 5 km
500 à 1000 ft
800 à 1500m
200 à 500 ft
< 800m
< 200 ft
Symboles :   Orages  Brouillard  Fortes neiges  Fortes précipitations  Vent > 20 kt
SIGMETs :   Divers  Orages  Givrage  Turbulence  Onde Orograph.  Cendres Volcan.






- Altitude de l'aérodrome : 157 ft
- Code IATA : LIL


LFQQ - Lille Lesquin

DERNIER METAR :
  • 180530Z AUTO 26005KT 7000 FEW036 OVC045 04/02 Q1009 TEMPO 30017KT 3000 SHRA BKN008 BKN030TCU

METARs EXPIRÉS :
  • 180500Z AUTO VRB02KT 7000 OVC048 04/02 Q1009 NOSIG
  • 180430Z AUTO 28004KT 7000 NSC 03/02 Q1009 NOSIG
  • 180400Z AUTO 29006KT 7000 FEW022 BKN058 OVC150 03/02 Q1009 NOSIG
  • 180330Z AUTO 28006KT 7000 BKN022 BKN046 BKN070 03/02 Q1010 NOSIG
  • 180300Z AUTO 29004KT 7000 BKN023 OVC140 03/02 Q1010 NOSIG

TAF TAF LFQQ
Valide du 18 à 06h jusqu'au 19 à 12h UTC


180500Z 1806/1912 30007KT 7000 BKN020
TEMPO 1806/1818 30017KT 3000 SHRA BKN008 BKN030TCU
TEMPO 1903/1907 BKN007
ATIS : +33 3 20 16 19 54



MET'MAP, la Météo Aéronautique d'un coup d'oeil ! - Copyright ORBIFLY Décembre 2007 - Disclaimer

ORBIFLY MET'MAP TEAM :

Programmation & Développement : Alexandra Zaïnal
Conception & Développement : Baudouin d'Aumeries
Co-Programmation & Développement : Marc-Olivier Méhu
Soutien technique & logistique : Manuel Goepfert

Contact : metmap@orbifly.com




SOURCES & CREDITS :

   NOAA